Airfield :
LOGIN :

Register | Disclaimer

   EN    FR    IT 

 










Legend :    VFR   Marginal VFR   IFR   Intensive IFR   Very Intensive IFR
Visi :
Ceiling :
>= 8 km
>= 3000ft
5 to 8 km
1000 to 3000 ft
1500m to 5 km
500 to 1000 ft
800 to 1500m
200 to 500 ft
< 800m
< 200 ft
Symbols :   Thunderstorms  Fog  Heavy snow  Heavy precipitations  Wind > 20 kt
SIGMETs :     Misc.  Thunderstorms  Icing  Turbulence  Mountain Waves  Volcanic Ashes







- Airport Elevation : 526 ft
- IATA code : LTN
- Download approach charts


EGGW - London Luton

CURRENT METAR :
  • 200820Z AUTO 02005KT 350V060 8000 NCD M01/M02 Q1015

EXPIRED METARs :
  • 200750Z AUTO 01004KT 350V050 9999 NCD M02/M02 Q1015
  • 200720Z AUTO 01004KT 340V040 8000 NCD M02/M02 Q1014
  • 200650Z AUTO 03004KT 6000 NCD M02/M02 Q1014
  • 200620Z AUTO 03004KT 360V060 6000 NCD M02/M02 Q1013
  • 200550Z AUTO 02004KT 8000 NCD M02/M02 Q1013

TAF TAF EGGW
Valid from the 20 at 06:00 until the 21 at 06:00 UTC


200459Z 2006/2106 03004KT 9999 FEW012
TEMPO 2006/2011 6000
PROB30
TEMPO 2006/2010 2000 BR MIFG
BECMG 2018/2021 6000
TEMPO 2019/2106 3000 BR BKN006
PROB30
TEMPO 2103/2106 0300 FZFG FG VV///
ATIS : +44 1582 395 204
No reported NOTAMs for that airfield.



MET'MAP, your aeronautical weather chart ! - Copyright ORBIFLY December 2007 - Disclaimer

ORBIFLY MET'MAP TEAM :

Programming & Development : Alexandra Zaïnal
Concept & Development : Baudouin d'Aumeries
Co-Development & Prog : Marc-Olivier Méhu
Technical & hardware support : Manuel Goepfert

Contact : metmap@orbifly.com




SOURCES & CREDITS :

   NOAA